sensor_id;sensor_type;location;lat;lon;timestamp;P1;durP1;ratioP1;P2;durP2;ratioP2
25123;SDS011;13104;51.030;4.686;2023-03-21T00:00:22;15.88;;;6.40;;
25123;SDS011;13104;51.030;4.686;2023-03-21T00:02:49;13.50;;;6.32;;
25123;SDS011;13104;51.030;4.686;2023-03-21T00:05:15;14.98;;;7.00;;
25123;SDS011;13104;51.030;4.686;2023-03-21T00:07:42;15.07;;;6.25;;
25123;SDS011;13104;51.030;4.686;2023-03-21T00:10:08;16.77;;;6.50;;
25123;SDS011;13104;51.030;4.686;2023-03-21T00:12:35;13.60;;;6.43;;
25123;SDS011;13104;51.030;4.686;2023-03-21T00:15:04;17.58;;;6.68;;
25123;SDS011;13104;51.030;4.686;2023-03-21T00:17:30;15.85;;;6.18;;
25123;SDS011;13104;51.030;4.686;2023-03-21T00:19:58;12.23;;;5.93;;
25123;SDS011;13104;51.030;4.686;2023-03-21T00:22:25;16.92;;;6.60;;
25123;SDS011;13104;51.030;4.686;2023-03-21T00:24:52;13.25;;;6.40;;
25123;SDS011;13104;51.030;4.686;2023-03-21T00:27:18;15.07;;;6.15;;
25123;SDS011;13104;51.030;4.686;2023-03-21T00:29:47;15.57;;;6.22;;
25123;SDS011;13104;51.030;4.686;2023-03-21T00:32:13;15.18;;;6.35;;
25123;SDS011;13104;51.030;4.686;2023-03-21T00:34:42;17.13;;;6.55;;
25123;SDS011;13104;51.030;4.686;2023-03-21T00:37:09;17.27;;;5.97;;
25123;SDS011;13104;51.030;4.686;2023-03-21T00:39:38;14.88;;;6.00;;
25123;SDS011;13104;51.030;4.686;2023-03-21T00:42:04;10.55;;;5.78;;
25123;SDS011;13104;51.030;4.686;2023-03-21T00:44:31;15.68;;;6.30;;
25123;SDS011;13104;51.030;4.686;2023-03-21T00:47:04;14.75;;;6.68;;
25123;SDS011;13104;51.030;4.686;2023-03-21T00:49:30;17.35;;;5.85;;
25123;SDS011;13104;51.030;4.686;2023-03-21T00:52:02;12.95;;;6.40;;
25123;SDS011;13104;51.030;4.686;2023-03-21T00:54:30;14.45;;;6.53;;
25123;SDS011;13104;51.030;4.686;2023-03-21T00:56:56;19.42;;;6.88;;
25123;SDS011;13104;51.030;4.686;2023-03-21T00:59:23;14.57;;;6.55;;
25123;SDS011;13104;51.030;4.686;2023-03-21T01:01:49;14.00;;;7.15;;
25123;SDS011;13104;51.030;4.686;2023-03-21T01:04:20;19.08;;;7.03;;
25123;SDS011;13104;51.030;4.686;2023-03-21T01:06:51;19.00;;;7.85;;
25123;SDS011;13104;51.030;4.686;2023-03-21T01:09:18;18.73;;;7.25;;
25123;SDS011;13104;51.030;4.686;2023-03-21T01:11:45;18.50;;;6.88;;
25123;SDS011;13104;51.030;4.686;2023-03-21T01:14:12;14.18;;;6.50;;
25123;SDS011;13104;51.030;4.686;2023-03-21T01:16:38;17.08;;;8.30;;
25123;SDS011;13104;51.030;4.686;2023-03-21T01:19:05;18.27;;;7.25;;
25123;SDS011;13104;51.030;4.686;2023-03-21T01:21:32;17.73;;;7.95;;
25123;SDS011;13104;51.030;4.686;2023-03-21T01:23:58;19.50;;;8.20;;
25123;SDS011;13104;51.030;4.686;2023-03-21T01:26:25;23.23;;;8.80;;
25123;SDS011;13104;51.030;4.686;2023-03-21T01:28:52;20.90;;;7.53;;
25123;SDS011;13104;51.030;4.686;2023-03-21T01:31:18;23.42;;;9.57;;
25123;SDS011;13104;51.030;4.686;2023-03-21T01:33:44;49.92;;;22.50;;
25123;SDS011;13104;51.030;4.686;2023-03-21T01:36:16;15.07;;;8.38;;
25123;SDS011;13104;51.030;4.686;2023-03-21T01:38:42;21.38;;;7.40;;
25123;SDS011;13104;51.030;4.686;2023-03-21T01:41:15;16.20;;;6.85;;
25123;SDS011;13104;51.030;4.686;2023-03-21T01:43:43;16.35;;;7.00;;
25123;SDS011;13104;51.030;4.686;2023-03-21T01:49:08;15.55;;;6.70;;
25123;SDS011;13104;51.030;4.686;2023-03-21T01:51:37;21.27;;;7.18;;
25123;SDS011;13104;51.030;4.686;2023-03-21T01:54:05;18.25;;;7.53;;
25123;SDS011;13104;51.030;4.686;2023-03-21T01:56:36;14.88;;;7.20;;
25123;SDS011;13104;51.030;4.686;2023-03-21T01:59:12;15.65;;;7.35;;
25123;SDS011;13104;51.030;4.686;2023-03-21T02:01:41;12.32;;;6.55;;
25123;SDS011;13104;51.030;4.686;2023-03-21T02:04:09;13.52;;;6.50;;
25123;SDS011;13104;51.030;4.686;2023-03-21T02:06:43;13.40;;;6.63;;
25123;SDS011;13104;51.030;4.686;2023-03-21T02:09:12;19.17;;;6.35;;
25123;SDS011;13104;51.030;4.686;2023-03-21T02:11:40;15.82;;;7.07;;
25123;SDS011;13104;51.030;4.686;2023-03-21T02:14:11;12.60;;;6.80;;
25123;SDS011;13104;51.030;4.686;2023-03-21T02:19:41;15.93;;;6.03;;
25123;SDS011;13104;51.030;4.686;2023-03-21T02:24:56;12.18;;;6.20;;
25123;SDS011;13104;51.030;4.686;2023-03-21T02:27:28;18.05;;;5.70;;
25123;SDS011;13104;51.030;4.686;2023-03-21T02:30:31;16.60;;;6.38;;
25123;SDS011;13104;51.030;4.686;2023-03-21T02:38:26;16.25;;;5.65;;
25123;SDS011;13104;51.030;4.686;2023-03-21T02:41:41;18.83;;;6.40;;
25123;SDS011;13104;51.030;4.686;2023-03-21T02:43:46;20.33;;;6.00;;
25123;SDS011;13104;51.030;4.686;2023-03-21T02:46:22;15.75;;;6.15;;
25123;SDS011;13104;51.030;4.686;2023-03-21T02:48:58;16.40;;;5.70;;
25123;SDS011;13104;51.030;4.686;2023-03-21T02:51:25;14.23;;;6.28;;
25123;SDS011;13104;51.030;4.686;2023-03-21T02:53:54;19.13;;;6.20;;
25123;SDS011;13104;51.030;4.686;2023-03-21T02:56:22;15.85;;;6.78;;
25123;SDS011;13104;51.030;4.686;2023-03-21T02:58:50;23.80;;;6.40;;
25123;SDS011;13104;51.030;4.686;2023-03-21T03:01:17;15.88;;;6.40;;
25123;SDS011;13104;51.030;4.686;2023-03-21T03:03:43;17.95;;;6.20;;
25123;SDS011;13104;51.030;4.686;2023-03-21T03:06:18;19.17;;;6.38;;
25123;SDS011;13104;51.030;4.686;2023-03-21T03:11:23;15.82;;;6.03;;
25123;SDS011;13104;51.030;4.686;2023-03-21T03:14:16;19.02;;;6.45;;
25123;SDS011;13104;51.030;4.686;2023-03-21T03:16:47;13.55;;;5.32;;
25123;SDS011;13104;51.030;4.686;2023-03-21T03:19:24;16.13;;;5.80;;
25123;SDS011;13104;51.030;4.686;2023-03-21T03:21:58;17.20;;;6.03;;
25123;SDS011;13104;51.030;4.686;2023-03-21T03:24:28;15.68;;;5.85;;
25123;SDS011;13104;51.030;4.686;2023-03-21T03:26:58;15.68;;;5.72;;
25123;SDS011;13104;51.030;4.686;2023-03-21T03:29:26;11.52;;;5.38;;
25123;SDS011;13104;51.030;4.686;2023-03-21T03:32:00;16.52;;;5.20;;
25123;SDS011;13104;51.030;4.686;2023-03-21T03:34:29;15.23;;;4.90;;
25123;SDS011;13104;51.030;4.686;2023-03-21T03:36:58;20.23;;;5.38;;
25123;SDS011;13104;51.030;4.686;2023-03-21T03:39:50;13.20;;;5.95;;
25123;SDS011;13104;51.030;4.686;2023-03-21T03:42:16;15.77;;;5.10;;
25123;SDS011;13104;51.030;4.686;2023-03-21T03:44:43;15.02;;;5.53;;
25123;SDS011;13104;51.030;4.686;2023-03-21T03:47:10;12.18;;;4.72;;
25123;SDS011;13104;51.030;4.686;2023-03-21T03:49:40;20.58;;;6.03;;
25123;SDS011;13104;51.030;4.686;2023-03-21T03:52:21;15.48;;;5.20;;
25123;SDS011;13104;51.030;4.686;2023-03-21T03:54:48;13.60;;;5.13;;
25123;SDS011;13104;51.030;4.686;2023-03-21T03:57:16;13.20;;;5.50;;
25123;SDS011;13104;51.030;4.686;2023-03-21T03:59:43;17.17;;;6.38;;
25123;SDS011;13104;51.030;4.686;2023-03-21T04:02:10;14.70;;;5.45;;
25123;SDS011;13104;51.030;4.686;2023-03-21T04:04:37;17.35;;;5.55;;
25123;SDS011;13104;51.030;4.686;2023-03-21T04:07:03;13.82;;;5.25;;
25123;SDS011;13104;51.030;4.686;2023-03-21T04:09:30;11.10;;;4.65;;
25123;SDS011;13104;51.030;4.686;2023-03-21T04:11:57;15.35;;;4.40;;
25123;SDS011;13104;51.030;4.686;2023-03-21T04:14:23;10.23;;;4.38;;
25123;SDS011;13104;51.030;4.686;2023-03-21T04:16:50;15.00;;;5.03;;
25123;SDS011;13104;51.030;4.686;2023-03-21T04:19:16;11.80;;;4.88;;
25123;SDS011;13104;51.030;4.686;2023-03-21T04:21:44;14.00;;;4.93;;
25123;SDS011;13104;51.030;4.686;2023-03-21T04:24:10;12.90;;;4.28;;
25123;SDS011;13104;51.030;4.686;2023-03-21T04:26:37;15.77;;;5.07;;
25123;SDS011;13104;51.030;4.686;2023-03-21T04:29:04;12.27;;;4.20;;
25123;SDS011;13104;51.030;4.686;2023-03-21T04:31:30;12.68;;;4.63;;
25123;SDS011;13104;51.030;4.686;2023-03-21T04:34:03;16.55;;;4.30;;
25123;SDS011;13104;51.030;4.686;2023-03-21T04:36:34;14.02;;;4.60;;
25123;SDS011;13104;51.030;4.686;2023-03-21T04:39:06;13.90;;;4.50;;
25123;SDS011;13104;51.030;4.686;2023-03-21T04:41:40;13.65;;;3.38;;
25123;SDS011;13104;51.030;4.686;2023-03-21T04:44:07;11.35;;;4.88;;
25123;SDS011;13104;51.030;4.686;2023-03-21T04:46:34;16.83;;;5.00;;
25123;SDS011;13104;51.030;4.686;2023-03-21T04:49:00;14.05;;;4.70;;
25123;SDS011;13104;51.030;4.686;2023-03-21T04:51:27;18.10;;;4.72;;
25123;SDS011;13104;51.030;4.686;2023-03-21T04:53:53;16.88;;;5.45;;
25123;SDS011;13104;51.030;4.686;2023-03-21T04:56:23;13.75;;;4.68;;
25123;SDS011;13104;51.030;4.686;2023-03-21T04:58:54;15.30;;;4.93;;
25123;SDS011;13104;51.030;4.686;2023-03-21T05:01:21;12.60;;;5.28;;
25123;SDS011;13104;51.030;4.686;2023-03-21T05:03:47;18.88;;;4.45;;
25123;SDS011;13104;51.030;4.686;2023-03-21T05:06:13;15.23;;;5.03;;
25123;SDS011;13104;51.030;4.686;2023-03-21T05:08:40;15.95;;;4.97;;
25123;SDS011;13104;51.030;4.686;2023-03-21T05:11:06;13.95;;;5.15;;
25123;SDS011;13104;51.030;4.686;2023-03-21T05:13:32;19.00;;;6.20;;
25123;SDS011;13104;51.030;4.686;2023-03-21T05:15:58;14.60;;;5.47;;
25123;SDS011;13104;51.030;4.686;2023-03-21T05:18:24;15.63;;;5.55;;
25123;SDS011;13104;51.030;4.686;2023-03-21T05:20:51;17.05;;;6.00;;
25123;SDS011;13104;51.030;4.686;2023-03-21T05:23:21;18.13;;;6.55;;
25123;SDS011;13104;51.030;4.686;2023-03-21T05:25:47;16.98;;;6.55;;
25123;SDS011;13104;51.030;4.686;2023-03-21T05:28:13;18.50;;;7.00;;
25123;SDS011;13104;51.030;4.686;2023-03-21T05:30:47;16.38;;;6.30;;
25123;SDS011;13104;51.030;4.686;2023-03-21T05:33:13;18.58;;;6.50;;
25123;SDS011;13104;51.030;4.686;2023-03-21T05:35:40;16.35;;;6.72;;
25123;SDS011;13104;51.030;4.686;2023-03-21T05:38:06;15.80;;;6.20;;
25123;SDS011;13104;51.030;4.686;2023-03-21T05:40:33;18.33;;;6.65;;
25123;SDS011;13104;51.030;4.686;2023-03-21T05:42:59;18.05;;;6.90;;
25123;SDS011;13104;51.030;4.686;2023-03-21T05:45:25;17.30;;;7.03;;
25123;SDS011;13104;51.030;4.686;2023-03-21T05:47:51;16.70;;;7.22;;
25123;SDS011;13104;51.030;4.686;2023-03-21T05:50:18;21.83;;;7.57;;
25123;SDS011;13104;51.030;4.686;2023-03-21T05:52:44;15.35;;;7.35;;
25123;SDS011;13104;51.030;4.686;2023-03-21T05:55:10;25.17;;;7.22;;
25123;SDS011;13104;51.030;4.686;2023-03-21T05:57:36;18.60;;;6.85;;
25123;SDS011;13104;51.030;4.686;2023-03-21T06:00:05;21.80;;;8.10;;
25123;SDS011;13104;51.030;4.686;2023-03-21T06:02:32;20.55;;;7.63;;
25123;SDS011;13104;51.030;4.686;2023-03-21T06:04:58;17.35;;;7.35;;
25123;SDS011;13104;51.030;4.686;2023-03-21T06:07:24;19.48;;;7.88;;
25123;SDS011;13104;51.030;4.686;2023-03-21T06:09:50;18.33;;;7.57;;
25123;SDS011;13104;51.030;4.686;2023-03-21T06:12:16;17.10;;;7.20;;
25123;SDS011;13104;51.030;4.686;2023-03-21T06:14:42;18.63;;;7.30;;
25123;SDS011;13104;51.030;4.686;2023-03-21T06:17:09;17.50;;;7.25;;
25123;SDS011;13104;51.030;4.686;2023-03-21T06:19:35;18.45;;;7.30;;
25123;SDS011;13104;51.030;4.686;2023-03-21T06:22:01;21.40;;;7.82;;
25123;SDS011;13104;51.030;4.686;2023-03-21T06:24:27;16.75;;;7.40;;
25123;SDS011;13104;51.030;4.686;2023-03-21T06:26:53;18.92;;;8.18;;
25123;SDS011;13104;51.030;4.686;2023-03-21T06:29:20;22.20;;;7.47;;
25123;SDS011;13104;51.030;4.686;2023-03-21T06:31:46;16.63;;;8.38;;
25123;SDS011;13104;51.030;4.686;2023-03-21T06:34:13;21.88;;;7.60;;
25123;SDS011;13104;51.030;4.686;2023-03-21T06:36:39;22.90;;;8.02;;
25123;SDS011;13104;51.030;4.686;2023-03-21T06:39:08;19.70;;;8.57;;
25123;SDS011;13104;51.030;4.686;2023-03-21T06:41:34;21.55;;;8.73;;
25123;SDS011;13104;51.030;4.686;2023-03-21T06:44:01;20.85;;;9.27;;
25123;SDS011;13104;51.030;4.686;2023-03-21T06:46:28;17.77;;;8.85;;
25123;SDS011;13104;51.030;4.686;2023-03-21T06:48:55;22.83;;;8.60;;
25123;SDS011;13104;51.030;4.686;2023-03-21T06:51:21;26.40;;;9.02;;
25123;SDS011;13104;51.030;4.686;2023-03-21T06:53:47;24.27;;;9.13;;
25123;SDS011;13104;51.030;4.686;2023-03-21T06:56:13;22.00;;;8.50;;
25123;SDS011;13104;51.030;4.686;2023-03-21T06:58:39;21.58;;;9.25;;
25123;SDS011;13104;51.030;4.686;2023-03-21T07:01:06;26.35;;;9.73;;
25123;SDS011;13104;51.030;4.686;2023-03-21T07:03:33;24.65;;;10.18;;
25123;SDS011;13104;51.030;4.686;2023-03-21T07:06:03;32.17;;;9.60;;
25123;SDS011;13104;51.030;4.686;2023-03-21T07:08:31;24.58;;;9.38;;
25123;SDS011;13104;51.030;4.686;2023-03-21T07:10:57;24.95;;;9.77;;
25123;SDS011;13104;51.030;4.686;2023-03-21T07:13:23;22.58;;;9.98;;
25123;SDS011;13104;51.030;4.686;2023-03-21T07:15:50;22.55;;;9.13;;
25123;SDS011;13104;51.030;4.686;2023-03-21T07:18:17;20.23;;;10.00;;
25123;SDS011;13104;51.030;4.686;2023-03-21T07:20:45;23.10;;;9.70;;
25123;SDS011;13104;51.030;4.686;2023-03-21T07:23:15;23.65;;;9.05;;
25123;SDS011;13104;51.030;4.686;2023-03-21T07:25:41;23.63;;;9.93;;
25123;SDS011;13104;51.030;4.686;2023-03-21T07:28:07;25.92;;;10.27;;
25123;SDS011;13104;51.030;4.686;2023-03-21T07:30:35;23.20;;;8.82;;
25123;SDS011;13104;51.030;4.686;2023-03-21T07:33:01;20.40;;;9.52;;
25123;SDS011;13104;51.030;4.686;2023-03-21T07:35:28;23.42;;;9.75;;
25123;SDS011;13104;51.030;4.686;2023-03-21T07:37:54;22.35;;;9.05;;
25123;SDS011;13104;51.030;4.686;2023-03-21T07:40:21;26.42;;;9.88;;
25123;SDS011;13104;51.030;4.686;2023-03-21T07:42:48;24.42;;;9.65;;
25123;SDS011;13104;51.030;4.686;2023-03-21T07:45:15;20.10;;;9.27;;
25123;SDS011;13104;51.030;4.686;2023-03-21T07:47:45;18.17;;;8.80;;
25123;SDS011;13104;51.030;4.686;2023-03-21T07:50:11;25.48;;;9.38;;
25123;SDS011;13104;51.030;4.686;2023-03-21T07:52:38;25.58;;;9.75;;
25123;SDS011;13104;51.030;4.686;2023-03-21T07:55:04;24.58;;;10.10;;
25123;SDS011;13104;51.030;4.686;2023-03-21T07:57:30;26.33;;;9.98;;
25123;SDS011;13104;51.030;4.686;2023-03-21T07:59:57;22.85;;;9.35;;
25123;SDS011;13104;51.030;4.686;2023-03-21T08:02:23;17.88;;;8.75;;
25123;SDS011;13104;51.030;4.686;2023-03-21T08:04:49;19.02;;;8.73;;
25123;SDS011;13104;51.030;4.686;2023-03-21T08:07:15;19.42;;;8.15;;
25123;SDS011;13104;51.030;4.686;2023-03-21T08:09:42;23.92;;;8.32;;
25123;SDS011;13104;51.030;4.686;2023-03-21T08:12:08;18.20;;;7.68;;
25123;SDS011;13104;51.030;4.686;2023-03-21T08:14:35;21.48;;;7.68;;
25123;SDS011;13104;51.030;4.686;2023-03-21T08:17:02;25.00;;;7.22;;
25123;SDS011;13104;51.030;4.686;2023-03-21T08:19:28;17.05;;;6.68;;
25123;SDS011;13104;51.030;4.686;2023-03-21T08:21:55;16.45;;;6.25;;
25123;SDS011;13104;51.030;4.686;2023-03-21T08:24:24;12.52;;;5.43;;
25123;SDS011;13104;51.030;4.686;2023-03-21T08:26:50;12.93;;;5.55;;
25123;SDS011;13104;51.030;4.686;2023-03-21T08:29:16;11.65;;;5.30;;
25123;SDS011;13104;51.030;4.686;2023-03-21T08:31:42;12.63;;;5.53;;
25123;SDS011;13104;51.030;4.686;2023-03-21T08:34:08;17.80;;;5.28;;
25123;SDS011;13104;51.030;4.686;2023-03-21T08:36:35;11.20;;;4.80;;
25123;SDS011;13104;51.030;4.686;2023-03-21T08:39:02;12.88;;;4.65;;
25123;SDS011;13104;51.030;4.686;2023-03-21T08:41:32;14.73;;;4.40;;
25123;SDS011;13104;51.030;4.686;2023-03-21T08:43:58;10.18;;;4.95;;
25123;SDS011;13104;51.030;4.686;2023-03-21T08:46:24;12.15;;;4.65;;
25123;SDS011;13104;51.030;4.686;2023-03-21T08:48:51;17.67;;;4.47;;
25123;SDS011;13104;51.030;4.686;2023-03-21T08:51:17;7.78;;;4.60;;
25123;SDS011;13104;51.030;4.686;2023-03-21T08:53:43;13.77;;;5.35;;
25123;SDS011;13104;51.030;4.686;2023-03-21T08:56:10;11.40;;;4.95;;
25123;SDS011;13104;51.030;4.686;2023-03-21T08:58:36;16.20;;;5.03;;
25123;SDS011;13104;51.030;4.686;2023-03-21T09:01:03;11.95;;;4.80;;
25123;SDS011;13104;51.030;4.686;2023-03-21T09:03:31;10.00;;;5.18;;
25123;SDS011;13104;51.030;4.686;2023-03-21T09:05:57;11.68;;;4.90;;
25123;SDS011;13104;51.030;4.686;2023-03-21T09:08:23;10.13;;;4.72;;
25123;SDS011;13104;51.030;4.686;2023-03-21T09:10:53;13.88;;;4.75;;
25123;SDS011;13104;51.030;4.686;2023-03-21T09:13:19;17.08;;;5.50;;
25123;SDS011;13104;51.030;4.686;2023-03-21T09:15:45;11.65;;;5.13;;
25123;SDS011;13104;51.030;4.686;2023-03-21T09:18:12;8.68;;;4.68;;
25123;SDS011;13104;51.030;4.686;2023-03-21T09:20:43;16.48;;;5.38;;
25123;SDS011;13104;51.030;4.686;2023-03-21T09:23:11;12.18;;;5.00;;
25123;SDS011;13104;51.030;4.686;2023-03-21T09:25:38;14.07;;;5.03;;
25123;SDS011;13104;51.030;4.686;2023-03-21T09:28:04;10.13;;;4.70;;
25123;SDS011;13104;51.030;4.686;2023-03-21T09:30:32;14.18;;;5.38;;
25123;SDS011;13104;51.030;4.686;2023-03-21T09:32:59;13.65;;;4.95;;
25123;SDS011;13104;51.030;4.686;2023-03-21T09:35:26;12.00;;;5.07;;
25123;SDS011;13104;51.030;4.686;2023-03-21T09:37:52;11.10;;;4.57;;
25123;SDS011;13104;51.030;4.686;2023-03-21T09:42:59;11.18;;;4.65;;
25123;SDS011;13104;51.030;4.686;2023-03-21T09:47:54;10.60;;;4.75;;
25123;SDS011;13104;51.030;4.686;2023-03-21T09:50:26;13.75;;;5.32;;
25123;SDS011;13104;51.030;4.686;2023-03-21T09:55:33;13.80;;;5.57;;
25123;SDS011;13104;51.030;4.686;2023-03-21T10:00:46;19.55;;;5.70;;
25123;SDS011;13104;51.030;4.686;2023-03-21T10:03:21;13.45;;;4.85;;
25123;SDS011;13104;51.030;4.686;2023-03-21T10:05:52;12.65;;;5.03;;
25123;SDS011;13104;51.030;4.686;2023-03-21T10:08:23;15.27;;;4.85;;
25123;SDS011;13104;51.030;4.686;2023-03-21T10:10:59;11.48;;;4.57;;
25123;SDS011;13104;51.030;4.686;2023-03-21T10:13:34;14.65;;;4.70;;
25123;SDS011;13104;51.030;4.686;2023-03-21T10:16:14;12.57;;;4.60;;
25123;SDS011;13104;51.030;4.686;2023-03-21T10:18:42;13.88;;;4.60;;
25123;SDS011;13104;51.030;4.686;2023-03-21T10:21:15;11.95;;;4.70;;
25123;SDS011;13104;51.030;4.686;2023-03-21T10:23:42;9.65;;;4.22;;
25123;SDS011;13104;51.030;4.686;2023-03-21T10:26:09;12.48;;;4.47;;
25123;SDS011;13104;51.030;4.686;2023-03-21T10:28:36;11.75;;;4.72;;
25123;SDS011;13104;51.030;4.686;2023-03-21T10:31:04;15.50;;;4.25;;
25123;SDS011;13104;51.030;4.686;2023-03-21T10:33:33;11.85;;;4.38;;
25123;SDS011;13104;51.030;4.686;2023-03-21T10:36:16;13.30;;;4.28;;
25123;SDS011;13104;51.030;4.686;2023-03-21T10:38:46;11.40;;;3.95;;
25123;SDS011;13104;51.030;4.686;2023-03-21T10:41:13;15.02;;;4.18;;
25123;SDS011;13104;51.030;4.686;2023-03-21T10:43:40;13.13;;;3.85;;
25123;SDS011;13104;51.030;4.686;2023-03-21T10:46:12;10.35;;;3.70;;
25123;SDS011;13104;51.030;4.686;2023-03-21T10:48:42;10.68;;;3.72;;
25123;SDS011;13104;51.030;4.686;2023-03-21T10:51:14;12.32;;;4.05;;
25123;SDS011;13104;51.030;4.686;2023-03-21T10:53:44;13.20;;;3.75;;
25123;SDS011;13104;51.030;4.686;2023-03-21T10:56:11;9.60;;;3.38;;
25123;SDS011;13104;51.030;4.686;2023-03-21T10:58:41;7.63;;;3.92;;
25123;SDS011;13104;51.030;4.686;2023-03-21T11:01:10;10.10;;;3.92;;
25123;SDS011;13104;51.030;4.686;2023-03-21T11:03:39;11.65;;;4.07;;
25123;SDS011;13104;51.030;4.686;2023-03-21T11:08:48;12.48;;;4.22;;
25123;SDS011;13104;51.030;4.686;2023-03-21T11:11:36;12.27;;;3.67;;
25123;SDS011;13104;51.030;4.686;2023-03-21T11:14:04;13.77;;;4.10;;
25123;SDS011;13104;51.030;4.686;2023-03-21T11:16:40;10.68;;;3.53;;
25123;SDS011;13104;51.030;4.686;2023-03-21T11:19:12;11.20;;;3.50;;
25123;SDS011;13104;51.030;4.686;2023-03-21T11:21:38;11.98;;;3.90;;
25123;SDS011;13104;51.030;4.686;2023-03-21T11:24:05;9.70;;;4.00;;
25123;SDS011;13104;51.030;4.686;2023-03-21T11:26:34;10.73;;;3.78;;
25123;SDS011;13104;51.030;4.686;2023-03-21T11:31:46;7.10;;;3.75;;
25123;SDS011;13104;51.030;4.686;2023-03-21T11:34:22;11.10;;;3.90;;
25123;SDS011;13104;51.030;4.686;2023-03-21T11:36:49;8.93;;;3.20;;
25123;SDS011;13104;51.030;4.686;2023-03-21T11:41:51;8.50;;;4.10;;
25123;SDS011;13104;51.030;4.686;2023-03-21T11:44:28;19.17;;;4.20;;
25123;SDS011;13104;51.030;4.686;2023-03-21T11:46:55;6.70;;;3.67;;
25123;SDS011;13104;51.030;4.686;2023-03-21T11:49:22;10.48;;;4.47;;
25123;SDS011;13104;51.030;4.686;2023-03-21T11:54:42;8.23;;;4.70;;
25123;SDS011;13104;51.030;4.686;2023-03-21T12:14:38;9.98;;;4.78;;
25123;SDS011;13104;51.030;4.686;2023-03-21T12:24:56;11.82;;;4.30;;
25123;SDS011;13104;51.030;4.686;2023-03-21T12:30:29;8.50;;;3.83;;
25123;SDS011;13104;51.030;4.686;2023-03-21T12:45:47;11.27;;;4.05;;
25123;SDS011;13104;51.030;4.686;2023-03-21T12:53:33;7.53;;;4.22;;
25123;SDS011;13104;51.030;4.686;2023-03-21T12:56:02;7.97;;;3.65;;
25123;SDS011;13104;51.030;4.686;2023-03-21T12:58:30;7.80;;;3.92;;
25123;SDS011;13104;51.030;4.686;2023-03-21T13:00:59;10.40;;;4.50;;
25123;SDS011;13104;51.030;4.686;2023-03-21T13:03:50;8.55;;;4.30;;
25123;SDS011;13104;51.030;4.686;2023-03-21T13:06:15;6.85;;;4.63;;
25123;SDS011;13104;51.030;4.686;2023-03-21T13:08:45;9.18;;;4.00;;
25123;SDS011;13104;51.030;4.686;2023-03-21T13:11:14;8.57;;;4.30;;
25123;SDS011;13104;51.030;4.686;2023-03-21T13:16:27;11.05;;;4.43;;
25123;SDS011;13104;51.030;4.686;2023-03-21T13:23:57;10.43;;;4.72;;
25123;SDS011;13104;51.030;4.686;2023-03-21T13:26:46;10.77;;;3.90;;
25123;SDS011;13104;51.030;4.686;2023-03-21T13:29:25;7.82;;;3.60;;
25123;SDS011;13104;51.030;4.686;2023-03-21T13:31:52;8.07;;;4.07;;
25123;SDS011;13104;51.030;4.686;2023-03-21T13:34:22;12.38;;;4.35;;
25123;SDS011;13104;51.030;4.686;2023-03-21T13:36:49;9.18;;;3.95;;
25123;SDS011;13104;51.030;4.686;2023-03-21T13:39:18;8.95;;;4.03;;
25123;SDS011;13104;51.030;4.686;2023-03-21T13:41:47;5.72;;;3.45;;
25123;SDS011;13104;51.030;4.686;2023-03-21T13:47:02;7.47;;;3.97;;
25123;SDS011;13104;51.030;4.686;2023-03-21T13:49:33;9.10;;;3.47;;
25123;SDS011;13104;51.030;4.686;2023-03-21T13:52:00;11.45;;;3.65;;
25123;SDS011;13104;51.030;4.686;2023-03-21T13:57:03;10.38;;;3.85;;
25123;SDS011;13104;51.030;4.686;2023-03-21T13:59:42;6.28;;;3.85;;
25123;SDS011;13104;51.030;4.686;2023-03-21T14:04:39;6.82;;;3.55;;
25123;SDS011;13104;51.030;4.686;2023-03-21T14:07:10;9.93;;;4.18;;
25123;SDS011;13104;51.030;4.686;2023-03-21T14:09:38;10.88;;;3.70;;
25123;SDS011;13104;51.030;4.686;2023-03-21T14:12:06;9.70;;;3.72;;
25123;SDS011;13104;51.030;4.686;2023-03-21T14:14:37;9.25;;;3.67;;
25123;SDS011;13104;51.030;4.686;2023-03-21T14:17:21;22.95;;;5.20;;
25123;SDS011;13104;51.030;4.686;2023-03-21T14:19:52;11.05;;;3.20;;
25123;SDS011;13104;51.030;4.686;2023-03-21T14:22:18;6.90;;;3.28;;
25123;SDS011;13104;51.030;4.686;2023-03-21T14:24:48;5.35;;;3.10;;
25123;SDS011;13104;51.030;4.686;2023-03-21T14:27:19;6.53;;;3.00;;
25123;SDS011;13104;51.030;4.686;2023-03-21T14:29:46;5.72;;;3.00;;
25123;SDS011;13104;51.030;4.686;2023-03-21T14:32:20;8.48;;;3.10;;
25123;SDS011;13104;51.030;4.686;2023-03-21T14:34:47;4.63;;;2.70;;
25123;SDS011;13104;51.030;4.686;2023-03-21T14:37:27;9.45;;;3.38;;
25123;SDS011;13104;51.030;4.686;2023-03-21T14:39:59;9.38;;;3.20;;
25123;SDS011;13104;51.030;4.686;2023-03-21T14:42:26;5.30;;;3.13;;
25123;SDS011;13104;51.030;4.686;2023-03-21T14:44:52;7.88;;;3.67;;
25123;SDS011;13104;51.030;4.686;2023-03-21T14:47:28;11.35;;;3.92;;
25123;SDS011;13104;51.030;4.686;2023-03-21T14:49:56;7.90;;;3.60;;
25123;SDS011;13104;51.030;4.686;2023-03-21T14:52:24;8.38;;;4.25;;
25123;SDS011;13104;51.030;4.686;2023-03-21T14:54:50;8.73;;;4.18;;
25123;SDS011;13104;51.030;4.686;2023-03-21T14:57:21;10.02;;;4.93;;
25123;SDS011;13104;51.030;4.686;2023-03-21T14:59:49;9.35;;;4.57;;
25123;SDS011;13104;51.030;4.686;2023-03-21T15:02:24;6.95;;;4.78;;
25123;SDS011;13104;51.030;4.686;2023-03-21T15:04:52;7.00;;;4.93;;
25123;SDS011;13104;51.030;4.686;2023-03-21T15:07:22;7.97;;;5.20;;
25123;SDS011;13104;51.030;4.686;2023-03-21T15:09:56;14.63;;;5.15;;
25123;SDS011;13104;51.030;4.686;2023-03-21T15:12:23;12.30;;;5.05;;
25123;SDS011;13104;51.030;4.686;2023-03-21T15:14:49;11.93;;;5.32;;
25123;SDS011;13104;51.030;4.686;2023-03-21T15:17:15;18.15;;;5.55;;
25123;SDS011;13104;51.030;4.686;2023-03-21T15:19:42;11.95;;;6.20;;
25123;SDS011;13104;51.030;4.686;2023-03-21T15:22:11;8.88;;;4.72;;
25123;SDS011;13104;51.030;4.686;2023-03-21T15:24:40;7.25;;;5.22;;
25123;SDS011;13104;51.030;4.686;2023-03-21T15:27:15;8.50;;;5.00;;
25123;SDS011;13104;51.030;4.686;2023-03-21T15:29:42;7.63;;;4.22;;
25123;SDS011;13104;51.030;4.686;2023-03-21T15:32:12;10.70;;;4.10;;
25123;SDS011;13104;51.030;4.686;2023-03-21T15:34:39;6.43;;;3.83;;
25123;SDS011;13104;51.030;4.686;2023-03-21T15:37:06;6.28;;;4.05;;
25123;SDS011;13104;51.030;4.686;2023-03-21T15:39:33;6.30;;;4.10;;
25123;SDS011;13104;51.030;4.686;2023-03-21T15:44:46;5.10;;;3.15;;
25123;SDS011;13104;51.030;4.686;2023-03-21T15:47:15;5.70;;;3.70;;
25123;SDS011;13104;51.030;4.686;2023-03-21T15:49:59;6.15;;;4.43;;
25123;SDS011;13104;51.030;4.686;2023-03-21T15:52:31;7.00;;;4.13;;
25123;SDS011;13104;51.030;4.686;2023-03-21T15:54:57;8.73;;;3.97;;
25123;SDS011;13104;51.030;4.686;2023-03-21T15:57:30;5.28;;;3.67;;
25123;SDS011;13104;51.030;4.686;2023-03-21T16:00:11;7.97;;;3.85;;
25123;SDS011;13104;51.030;4.686;2023-03-21T16:02:43;5.90;;;3.53;;
25123;SDS011;13104;51.030;4.686;2023-03-21T16:05:32;6.03;;;3.85;;
25123;SDS011;13104;51.030;4.686;2023-03-21T16:07:57;6.90;;;4.43;;
25123;SDS011;13104;51.030;4.686;2023-03-21T16:10:29;8.55;;;4.80;;
25123;SDS011;13104;51.030;4.686;2023-03-21T16:12:55;5.97;;;4.30;;
25123;SDS011;13104;51.030;4.686;2023-03-21T16:15:23;9.48;;;5.30;;
25123;SDS011;13104;51.030;4.686;2023-03-21T16:17:50;9.85;;;5.45;;
25123;SDS011;13104;51.030;4.686;2023-03-21T16:20:19;10.93;;;5.78;;
25123;SDS011;13104;51.030;4.686;2023-03-21T16:22:46;8.63;;;4.82;;
25123;SDS011;13104;51.030;4.686;2023-03-21T16:25:13;11.52;;;5.60;;
25123;SDS011;13104;51.030;4.686;2023-03-21T16:27:39;6.75;;;5.38;;